Terminal Aerodrome Forecast
Issued by NWS

Current Version | Previous Version | Text Only | Print | Product List | Glossary On
Versions: 1 2 3 4 5 6 7 8 9 10 11 12 13 14 15 16
000
FTUS46 KSEW 310800 AAA
TAFOLM
TAF AMD
KOLM 310809Z 3108/0106 VRB03KT P6SM -RA SCT010 OVC040
      TEMPO 3108/3111 4SM RA BR BKN010 OVC030
     FM311200 21005KT P6SM SCT015 OVC040
      TEMPO 3112/3116 5SM -SHRA BR BKN015 OVC040
     FM312000 21007KT P6SM VCSH SCT020 BKN040
     FM010500 VRB03KT P6SM BKN015 OVC040=

USA.gov is the U.S. government's official web portal to all federal, state and local government web resources and services.